createdAt,value
2023-05-20T00:00:11.742Z,101443.63
2023-05-20T00:02:39.651Z,101436.56
2023-05-20T00:05:08.613Z,101436.44
2023-05-20T00:07:36.648Z,101423.56
2023-05-20T00:10:04.280Z,101440.34
2023-05-20T00:12:33.325Z,101430.44
2023-05-20T00:15:01.178Z,101433.31
2023-05-20T00:17:28.828Z,101441.38
2023-05-20T00:19:56.477Z,101440.81
2023-05-20T00:22:24.116Z,101446.34
2023-05-20T00:24:51.805Z,101441.44
2023-05-20T00:27:19.410Z,101436.63
2023-05-20T00:29:48.441Z,101441.91
2023-05-20T00:32:16.265Z,101431.47
2023-05-20T00:34:59.574Z,101425.47
2023-05-20T00:37:27.484Z,101425.81
2023-05-20T00:39:55.354Z,101428.47
2023-05-20T00:42:23.143Z,101439.97
2023-05-20T00:44:52.301Z,101422.06
2023-05-20T00:47:21.577Z,101406.97
2023-05-20T00:49:51.382Z,101439.59
2023-05-20T00:52:19.512Z,101431.69
2023-05-20T00:54:47.344Z,101423.38
2023-05-20T00:57:15.361Z,101427.13
2023-05-20T00:59:44.781Z,101427.81
2023-05-20T01:02:14.037Z,101415.84
2023-05-20T01:04:46.493Z,101414.91
2023-05-20T01:07:14.887Z,101421.06
2023-05-20T01:09:42.544Z,101426.28
2023-05-20T01:12:13.766Z,101411.66
2023-05-20T01:14:45.599Z,101414.47
2023-05-20T01:17:17.976Z,101424.06
2023-05-20T01:19:46.522Z,101413.50
2023-05-20T01:22:15.321Z,101426.34
2023-05-20T01:24:48.232Z,101438.44
2023-05-20T01:27:15.897Z,101433.66
2023-05-20T01:29:45.950Z,101435.22
2023-05-20T01:32:17.139Z,101423.47
2023-05-20T01:34:45.293Z,101423.09
2023-05-20T01:37:13.981Z,101443.47
2023-05-20T01:39:43.894Z,101435.25
2023-05-20T01:42:11.940Z,101428.19
2023-05-20T01:44:39.659Z,101434.28
2023-05-20T01:47:07.373Z,101420.75
2023-05-20T01:49:35.044Z,101422.16
2023-05-20T01:52:08.899Z,101420.53
2023-05-20T01:54:36.859Z,101420.81
2023-05-20T01:57:06.205Z,101427.19
2023-05-20T01:59:33.954Z,101406.50
2023-05-20T02:02:01.696Z,101417.91
2023-05-20T02:04:29.376Z,101400.16
2023-05-20T02:06:57.000Z,101397.69
2023-05-20T02:09:24.602Z,101413.22
2023-05-20T02:11:52.316Z,101412.16
2023-05-20T02:14:21.303Z,101413.13
2023-05-20T02:16:49.088Z,101432.19
2023-05-20T02:19:23.792Z,101413.97
2023-05-20T02:21:52.491Z,101414.06
2023-05-20T02:24:21.236Z,101408.59
2023-05-20T02:26:51.119Z,101410.75
2023-05-20T02:29:19.703Z,101407.81
2023-05-20T02:31:49.004Z,101403.00
2023-05-20T02:34:16.848Z,101401.88
2023-05-20T02:36:44.519Z,101403.59
2023-05-20T02:39:12.546Z,101407.78
2023-05-20T02:41:40.190Z,101401.78
2023-05-20T02:44:07.839Z,101410.69
2023-05-20T02:46:35.786Z,101408.09
2023-05-20T02:49:05.060Z,101409.06
2023-05-20T02:51:33.423Z,101391.31
2023-05-20T02:54:01.056Z,101395.22
2023-05-20T02:56:28.758Z,101395.25
2023-05-20T02:58:56.401Z,101416.63
2023-05-20T03:01:24.378Z,101388.63
2023-05-20T03:03:52.466Z,101391.94
2023-05-20T03:06:21.521Z,101385.31
2023-05-20T03:08:49.125Z,101395.25
2023-05-20T03:11:16.743Z,101403.03
2023-05-20T03:13:44.389Z,101387.75
2023-05-20T03:16:13.209Z,101406.06
2023-05-20T03:18:41.926Z,101392.38
2023-05-20T03:21:09.765Z,101387.22
2023-05-20T03:23:38.780Z,101403.81
2023-05-20T03:26:07.027Z,101400.25
2023-05-20T03:28:34.726Z,101391.69
2023-05-20T03:31:02.812Z,101391.78
2023-05-20T03:33:31.519Z,101386.75
2023-05-20T03:35:59.148Z,101390.97
2023-05-20T03:38:26.861Z,101392.25
2023-05-20T03:40:55.946Z,101407.22
2023-05-20T03:43:23.574Z,101396.47
2023-05-20T03:45:51.168Z,101404.38
2023-05-20T03:48:18.775Z,101410.69
2023-05-20T03:51:19.450Z,101406.72
2023-05-20T03:53:47.209Z,101403.28
2023-05-20T03:56:16.265Z,101391.41
2023-05-20T03:58:44.253Z,101397.03
2023-05-20T04:01:14.265Z,101392.44
2023-05-20T04:03:42.655Z,101397.34
2023-05-20T04:06:10.383Z,101397.22
2023-05-20T04:08:38.077Z,101396.16
2023-05-20T04:11:06.139Z,101389.94
2023-05-20T04:13:35.148Z,101401.44
2023-05-20T04:16:05.390Z,101394.44
2023-05-20T04:18:33.312Z,101405.34
2023-05-20T04:21:01.566Z,101388.91
2023-05-20T04:23:29.229Z,101393.50
2023-05-20T04:26:02.217Z,101402.78
2023-05-20T04:28:31.300Z,101400.28
2023-05-20T04:31:04.446Z,101407.94
2023-05-20T04:33:32.899Z,101408.75
2023-05-20T04:36:01.635Z,101402.38
2023-05-20T04:38:30.435Z,101407.97
2023-05-20T04:40:58.935Z,101420.09
2023-05-20T04:43:29.935Z,101409.25
2023-05-20T04:45:58.052Z,101419.69
2023-05-20T04:48:27.129Z,101410.34
2023-05-20T04:50:55.552Z,101418.25
2023-05-20T04:53:23.333Z,101407.47
2023-05-20T04:55:53.914Z,101408.97
2023-05-20T04:58:24.332Z,101407.13
2023-05-20T05:00:52.904Z,101403.59
2023-05-20T05:03:20.626Z,101395.16
2023-05-20T05:05:49.673Z,101402.59
2023-05-20T05:08:17.851Z,101404.09
2023-05-20T05:10:46.310Z,101403.41
2023-05-20T05:13:14.046Z,101403.81
2023-05-20T05:15:41.921Z,101401.88
2023-05-20T05:18:09.742Z,101391.94
2023-05-20T05:20:37.774Z,101395.47
2023-05-20T05:23:07.177Z,101399.72
2023-05-20T05:25:34.934Z,101400.53
2023-05-20T05:28:02.727Z,101393.28
2023-05-20T05:30:30.324Z,101387.75
2023-05-20T05:32:58.154Z,101405.09
2023-05-20T05:35:25.995Z,101387.28
2023-05-20T05:37:53.581Z,101390.56
2023-05-20T05:40:22.766Z,101383.31
2023-05-20T05:42:50.481Z,101390.03
2023-05-20T05:45:18.246Z,101398.09
2023-05-20T05:47:46.010Z,101396.22
2023-05-20T05:50:13.753Z,101390.63
2023-05-20T05:52:41.615Z,101401.63
2023-05-20T05:55:10.234Z,101400.38
2023-05-20T05:57:39.285Z,101374.38
2023-05-20T06:00:08.187Z,101395.34
2023-05-20T06:02:36.350Z,101395.16
2023-05-20T06:05:04.442Z,101379.00
2023-05-20T06:07:32.224Z,101378.00
2023-05-20T06:09:59.836Z,101413.31
2023-05-20T06:12:27.498Z,101409.25
2023-05-20T06:14:56.534Z,101387.66
2023-05-20T06:17:24.149Z,101399.75
2023-05-20T06:19:51.816Z,101395.94
2023-05-20T06:22:19.453Z,101405.03
2023-05-20T06:24:47.078Z,101384.97
2023-05-20T06:27:14.698Z,101382.09
2023-05-20T06:29:43.754Z,101373.03
2023-05-20T06:32:13.101Z,101374.25
2023-05-20T06:34:41.057Z,101385.38
2023-05-20T06:37:08.682Z,101356.50
2023-05-20T06:39:36.359Z,101384.66
2023-05-20T06:42:04.502Z,101369.69
2023-05-20T06:44:32.478Z,101375.56
2023-05-20T06:47:00.117Z,101374.47
2023-05-20T06:49:29.321Z,101365.34
2023-05-20T06:51:56.981Z,101361.25
2023-05-20T06:54:24.607Z,101369.44
2023-05-20T06:56:54.229Z,101372.09
2023-05-20T06:59:21.947Z,101376.56
2023-05-20T07:01:49.638Z,101361.78
2023-05-20T07:04:17.500Z,101365.44
2023-05-20T07:06:46.684Z,101352.97
2023-05-20T07:09:14.407Z,101375.44
2023-05-20T07:11:42.075Z,101362.88
2023-05-20T07:14:10.224Z,101363.19
2023-05-20T07:16:38.139Z,101364.44
2023-05-20T07:19:06.022Z,101352.47
2023-05-20T07:21:33.702Z,101339.78
2023-05-20T07:24:02.812Z,101342.84
2023-05-20T07:26:33.557Z,101369.41
2023-05-20T07:29:01.968Z,101353.53
2023-05-20T07:31:29.711Z,101350.78
2023-05-20T07:33:57.511Z,101351.38
2023-05-20T07:36:25.238Z,101358.22
2023-05-20T07:39:03.210Z,101350.25
2023-05-20T07:41:33.378Z,101357.97
2023-05-20T07:44:04.140Z,101362.75
2023-05-20T07:46:31.919Z,101351.41
2023-05-20T07:49:13.832Z,101353.38
2023-05-20T07:51:41.551Z,101356.59
2023-05-20T07:54:09.391Z,101359.03
2023-05-20T07:56:38.454Z,101348.97
2023-05-20T07:59:06.136Z,101354.19
2023-05-20T08:01:34.689Z,101340.25
2023-05-20T08:04:02.443Z,101343.50
2023-05-20T08:06:30.246Z,101348.84
2023-05-20T08:08:57.926Z,101351.28
2023-05-20T08:11:25.674Z,101331.94
2023-05-20T08:13:55.309Z,101336.56
2023-05-20T08:16:23.301Z,101346.25
2023-05-20T08:18:51.352Z,101354.28
2023-05-20T08:21:19.158Z,101339.84
2023-05-20T08:23:46.791Z,101346.53
2023-05-20T08:26:14.509Z,101339.72
2023-05-20T08:28:42.330Z,101345.53
2023-05-20T08:31:11.508Z,101350.34
2023-05-20T08:33:39.180Z,101337.06
2023-05-20T08:36:08.309Z,101339.53
2023-05-20T08:38:36.558Z,101324.31
2023-05-20T08:41:16.809Z,101322.44
2023-05-20T08:43:45.071Z,101323.75
2023-05-20T08:46:16.174Z,101323.50
2023-05-20T08:48:45.337Z,101323.22
2023-05-20T08:51:13.226Z,101312.41
2023-05-20T08:53:41.255Z,101302.88
2023-05-20T08:56:09.467Z,101333.16
2023-05-20T08:58:37.537Z,101314.69
2023-05-20T09:01:05.309Z,101316.16
2023-05-20T09:03:34.511Z,101305.53
2023-05-20T09:06:05.899Z,101321.47
2023-05-20T09:08:34.380Z,101321.16
2023-05-20T09:11:02.519Z,101319.97
2023-05-20T09:13:32.432Z,101318.28
2023-05-20T09:16:01.068Z,101310.72
2023-05-20T09:18:29.258Z,101323.38
2023-05-20T09:20:58.546Z,101323.47
2023-05-20T09:23:27.705Z,101309.13
2023-05-20T09:25:55.556Z,101300.78
2023-05-20T09:28:25.531Z,101312.63
2023-05-20T09:30:59.021Z,101302.38
2023-05-20T09:33:29.877Z,101313.66
2023-05-20T09:36:04.476Z,101298.44
2023-05-20T09:38:37.925Z,101301.41
2023-05-20T09:41:09.166Z,101290.91
2023-05-20T09:43:37.414Z,101298.13
2023-05-20T09:46:06.016Z,101283.34
2023-05-20T09:48:34.475Z,101285.78
2023-05-20T09:51:05.178Z,101285.59
2023-05-20T09:53:32.810Z,101292.22
2023-05-20T09:56:00.588Z,101294.72
2023-05-20T09:58:28.497Z,101300.91
2023-05-20T10:00:56.265Z,101282.31
2023-05-20T10:03:25.272Z,101283.94
2023-05-20T10:06:05.376Z,101281.47
2023-05-20T10:08:44.225Z,101281.66
2023-05-20T10:11:33.214Z,101286.84
2023-05-20T10:14:13.263Z,101274.44
2023-05-20T10:16:45.802Z,101286.88
2023-05-20T10:19:21.528Z,101259.34
2023-05-20T10:21:58.241Z,101281.63
2023-05-20T10:24:33.249Z,101272.06
2023-05-20T10:27:03.345Z,101264.34
2023-05-20T10:29:31.325Z,101261.44
2023-05-20T10:32:08.335Z,101252.50
2023-05-20T10:34:46.414Z,101265.16
2023-05-20T10:37:24.441Z,101248.84
2023-05-20T10:39:53.584Z,101274.72
2023-05-20T10:42:29.451Z,101269.06
2023-05-20T10:44:57.303Z,101253.44
2023-05-20T10:47:26.473Z,101235.84
2023-05-20T10:49:54.479Z,101246.84
2023-05-20T10:52:22.344Z,101239.19
2023-05-20T10:54:59.191Z,101223.31
2023-05-20T10:57:27.918Z,101228.81
2023-05-20T10:59:56.371Z,101232.06
2023-05-20T11:02:27.081Z,101221.56
2023-05-20T11:04:55.114Z,101237.91
2023-05-20T11:07:27.632Z,101230.75
2023-05-20T11:09:55.357Z,101213.28
2023-05-20T11:12:25.368Z,101209.84
2023-05-20T11:14:53.542Z,101218.38
2023-05-20T11:17:21.666Z,101222.59
2023-05-20T11:19:49.612Z,101214.00
2023-05-20T11:22:17.412Z,101224.41
2023-05-20T11:24:45.095Z,101199.34
2023-05-20T11:27:12.755Z,101196.19
2023-05-20T11:29:42.215Z,101193.00
2023-05-20T11:32:10.021Z,101186.97
2023-05-20T11:34:38.728Z,101202.75
2023-05-20T11:37:08.650Z,101185.53
2023-05-20T11:39:36.536Z,101189.03
2023-05-20T11:42:05.947Z,101178.47
2023-05-20T11:44:33.919Z,101194.16
2023-05-20T11:47:19.287Z,101207.22
2023-05-20T11:49:50.235Z,101198.44
2023-05-20T11:52:18.080Z,101187.38
2023-05-20T11:54:45.903Z,101184.75
2023-05-20T11:57:13.704Z,101186.72
2023-05-20T11:59:41.412Z,101185.25
2023-05-20T12:02:09.136Z,101187.22
2023-05-20T12:04:38.268Z,101186.22
2023-05-20T12:07:09.313Z,101187.81
2023-05-20T12:09:36.990Z,101177.28
2023-05-20T12:12:05.051Z,101159.75
2023-05-20T12:14:32.838Z,101181.59
2023-05-20T12:17:00.645Z,101177.78
2023-05-20T12:19:28.445Z,101182.63
2023-05-20T12:21:57.583Z,101167.56
2023-05-20T12:24:25.245Z,101184.31
2023-05-20T12:26:52.963Z,101164.13
2023-05-20T12:29:21.019Z,101154.19
2023-05-20T12:31:48.855Z,101160.38
2023-05-20T12:34:16.536Z,101157.97
2023-05-20T12:36:44.318Z,101171.91
2023-05-20T12:39:13.851Z,101156.34
2023-05-20T12:41:42.379Z,101165.00
2023-05-20T12:44:10.194Z,101168.22
2023-05-20T12:46:38.235Z,101183.25
2023-05-20T12:49:06.022Z,101178.81
2023-05-20T12:51:33.736Z,101187.63
2023-05-20T12:54:01.382Z,101172.13
2023-05-20T12:56:30.724Z,101157.03
2023-05-20T12:59:16.688Z,101159.75
2023-05-20T13:01:44.362Z,101159.56
2023-05-20T13:04:12.013Z,101156.31
2023-05-20T13:06:39.689Z,101159.25
2023-05-20T13:09:07.890Z,101150.78
2023-05-20T13:11:37.028Z,101157.19
2023-05-20T13:14:04.676Z,101151.25
2023-05-20T13:16:32.521Z,101160.44
2023-05-20T13:19:00.267Z,101147.53
2023-05-20T13:21:28.063Z,101147.28
2023-05-20T13:23:55.726Z,101125.66
2023-05-20T13:26:23.697Z,101146.25
2023-05-20T13:28:52.862Z,101143.06
2023-05-20T13:31:20.594Z,101133.53
2023-05-20T13:33:48.316Z,101150.09
2023-05-20T13:36:15.999Z,101148.72
2023-05-20T13:38:43.652Z,101157.44
2023-05-20T13:41:11.396Z,101123.25
2023-05-20T13:43:42.106Z,101139.81
2023-05-20T13:46:11.429Z,101137.59
2023-05-20T13:48:39.131Z,101117.72
2023-05-20T13:51:07.053Z,101110.03
2023-05-20T13:53:34.721Z,101123.59
2023-05-20T13:56:02.460Z,101128.94
2023-05-20T13:58:30.052Z,101134.28
2023-05-20T14:00:57.876Z,101116.13
2023-05-20T14:03:27.090Z,101122.88
2023-05-20T14:05:54.745Z,101121.88
2023-05-20T14:08:22.424Z,101125.09
2023-05-20T14:10:54.634Z,101088.22
2023-05-20T14:13:22.469Z,101084.38
2023-05-20T14:15:50.662Z,101093.94
2023-05-20T14:18:18.408Z,101106.72
2023-05-20T14:20:47.473Z,101108.13
2023-05-20T14:23:15.521Z,101083.16
2023-05-20T14:25:43.249Z,101083.16
2023-05-20T14:28:11.244Z,101105.59
2023-05-20T14:31:16.021Z,101078.44
2023-05-20T14:33:43.689Z,101094.72
2023-05-20T14:36:12.820Z,101088.22
2023-05-20T14:38:40.518Z,101089.81
2023-05-20T14:41:08.131Z,101087.63
2023-05-20T14:43:36.690Z,101084.09
2023-05-20T14:46:04.959Z,101073.78
2023-05-20T14:48:32.602Z,101063.13
2023-05-20T14:51:00.204Z,101060.50
2023-05-20T14:53:29.344Z,101069.22
2023-05-20T14:55:57.014Z,101084.75
2023-05-20T14:58:24.633Z,101090.69
2023-05-20T15:00:53.815Z,101080.31
2023-05-20T15:03:23.404Z,101080.25
2023-05-20T15:05:51.281Z,101058.19
2023-05-20T15:08:19.175Z,101061.16
2023-05-20T15:10:48.448Z,101063.03
2023-05-20T15:13:16.154Z,101060.41
2023-05-20T15:15:43.776Z,101055.59
2023-05-20T15:18:11.713Z,101073.16
2023-05-20T15:20:39.538Z,101077.16
2023-05-20T15:23:07.347Z,101079.38
2023-05-20T15:25:35.350Z,101066.28
2023-05-20T15:28:04.687Z,101044.56
2023-05-20T15:30:32.345Z,101049.59
2023-05-20T15:33:00.169Z,101055.41
2023-05-20T15:35:27.884Z,101060.81
2023-05-20T15:37:55.595Z,101068.94
2023-05-20T15:40:23.429Z,101061.75
2023-05-20T15:42:51.497Z,101057.81
2023-05-20T15:45:20.644Z,101054.38
2023-05-20T15:47:48.312Z,101044.03
2023-05-20T15:50:16.246Z,101049.00
2023-05-20T15:52:43.931Z,101058.00
2023-05-20T15:55:11.941Z,101040.88
2023-05-20T15:57:39.565Z,101046.88
2023-05-20T16:00:10.501Z,101044.28
2023-05-20T16:02:40.302Z,101047.50
2023-05-20T16:05:08.753Z,101039.47
2023-05-20T16:07:36.570Z,101039.63
2023-05-20T16:10:05.017Z,101028.34
2023-05-20T16:12:32.664Z,101021.69
2023-05-20T16:15:00.433Z,101030.03
2023-05-20T16:17:28.168Z,101026.03
2023-05-20T16:19:57.209Z,101028.66
2023-05-20T16:22:24.829Z,101027.25
2023-05-20T16:24:52.455Z,101034.34
2023-05-20T16:27:20.138Z,101022.19
2023-05-20T16:29:47.746Z,101027.59
2023-05-20T16:32:15.461Z,101020.25
2023-05-20T16:34:43.078Z,101020.81
2023-05-20T16:37:12.850Z,101031.78
2023-05-20T16:39:40.481Z,101030.50
2023-05-20T16:42:09.272Z,101033.41
2023-05-20T16:44:39.019Z,101023.25
2023-05-20T16:47:06.931Z,101039.50
2023-05-20T16:49:34.700Z,101033.94
2023-05-20T16:52:02.435Z,101035.84
2023-05-20T16:54:32.630Z,101043.91
2023-05-20T16:57:00.716Z,101018.31
2023-05-20T16:59:30.285Z,101041.22
2023-05-20T17:01:58.228Z,101026.59
2023-05-20T17:04:25.950Z,101025.66
2023-05-20T17:06:53.620Z,101046.00
2023-05-20T17:09:21.370Z,101034.38
2023-05-20T17:11:50.982Z,101032.34
2023-05-20T17:14:18.680Z,101039.78
2023-05-20T17:16:46.396Z,101045.34
2023-05-20T17:19:14.334Z,101042.28
2023-05-20T17:21:41.991Z,101035.44
2023-05-20T17:24:09.653Z,101024.78
2023-05-20T17:26:37.486Z,101041.31
2023-05-20T17:29:06.581Z,101044.09
2023-05-20T17:31:34.290Z,101049.94
2023-05-20T17:34:02.076Z,101033.28
2023-05-20T17:36:29.930Z,101048.56
2023-05-20T17:38:57.536Z,101036.91
2023-05-20T17:41:25.161Z,101046.19
2023-05-20T17:43:52.834Z,101053.28
2023-05-20T17:46:21.920Z,101039.25
2023-05-20T17:48:49.562Z,101052.69
2023-05-20T17:51:17.225Z,101059.09
2023-05-20T17:53:44.885Z,101050.94
2023-05-20T17:56:12.549Z,101067.22
2023-05-20T17:58:40.206Z,101047.81
2023-05-20T18:01:17.485Z,101038.63
2023-05-20T18:03:46.637Z,101054.78
2023-05-20T18:06:14.560Z,101054.16
2023-05-20T18:08:42.479Z,101063.19
2023-05-20T18:11:10.279Z,101049.41
2023-05-20T18:13:37.899Z,101062.53
2023-05-20T18:16:06.602Z,101053.13
2023-05-20T18:18:34.446Z,101046.88
2023-05-20T18:21:06.904Z,101049.28
2023-05-20T18:23:34.628Z,101064.78
2023-05-20T18:26:06.703Z,101051.59
2023-05-20T18:28:34.526Z,101055.97
2023-05-20T18:31:02.254Z,101068.84
2023-05-20T18:33:29.898Z,101060.03
2023-05-20T18:35:57.486Z,101049.63
2023-05-20T18:38:27.346Z,101059.69
2023-05-20T18:40:54.975Z,101062.31
2023-05-20T18:43:22.656Z,101058.69
2023-05-20T18:45:50.436Z,101065.19
2023-05-20T18:48:26.271Z,101054.78
2023-05-20T18:50:54.601Z,101050.31
2023-05-20T18:53:22.286Z,101046.13
2023-05-20T18:55:51.461Z,101033.44
2023-05-20T18:58:19.110Z,101053.19
2023-05-20T19:00:46.795Z,101061.22
2023-05-20T19:03:14.418Z,101046.00
2023-05-20T19:05:42.083Z,101049.03
2023-05-20T19:08:09.729Z,101061.63
2023-05-20T19:10:37.429Z,101054.50
2023-05-20T19:13:06.537Z,101047.66
2023-05-20T19:15:34.740Z,101056.03
2023-05-20T19:18:02.527Z,101052.66
2023-05-20T19:20:30.285Z,101062.16
2023-05-20T19:22:58.005Z,101063.97
2023-05-20T19:25:25.661Z,101063.22
2023-05-20T19:27:53.346Z,101069.19
2023-05-20T19:30:22.438Z,101069.66
2023-05-20T19:32:50.187Z,101071.94
2023-05-20T19:35:18.212Z,101070.94
2023-05-20T19:37:45.977Z,101069.22
2023-05-20T19:40:14.695Z,101074.25
2023-05-20T19:42:42.431Z,101083.06
2023-05-20T19:45:11.136Z,101067.63
2023-05-20T19:47:40.256Z,101066.09
2023-05-20T19:50:08.554Z,101066.06
2023-05-20T19:52:36.290Z,101072.88
2023-05-20T19:55:04.217Z,101049.78
2023-05-20T19:57:32.016Z,101056.84
2023-05-20T19:59:59.854Z,101059.13
2023-05-20T20:02:27.607Z,101060.06
2023-05-20T20:04:56.709Z,101065.50
2023-05-20T20:07:24.447Z,101058.59
2023-05-20T20:09:55.197Z,101055.88
2023-05-20T20:12:23.609Z,101051.94
2023-05-20T20:14:51.955Z,101059.06
2023-05-20T20:17:21.369Z,101055.53
2023-05-20T20:19:53.036Z,101040.38
2023-05-20T20:22:22.422Z,101046.31
2023-05-20T20:24:50.623Z,101035.53
2023-05-20T20:27:19.243Z,101036.78
2023-05-20T20:29:46.959Z,101057.34
2023-05-20T20:32:14.717Z,101048.09
2023-05-20T20:34:43.005Z,101049.72
2023-05-20T20:37:14.597Z,101058.53
2023-05-20T20:39:45.333Z,101059.41
2023-05-20T20:42:13.040Z,101051.28
2023-05-20T20:44:42.588Z,101046.84
2023-05-20T20:47:10.461Z,101048.44
2023-05-20T20:49:38.279Z,101040.63
2023-05-20T20:52:06.607Z,101047.41
2023-05-20T20:54:34.370Z,101049.78
2023-05-20T20:57:04.050Z,101050.75
2023-05-20T20:59:31.902Z,101051.66
2023-05-20T21:01:59.657Z,101036.34
2023-05-20T21:04:27.931Z,101040.28
2023-05-20T21:06:55.745Z,101044.59
2023-05-20T21:09:23.777Z,101040.13
2023-05-20T21:11:51.523Z,101038.91
2023-05-20T21:14:20.600Z,101037.28
2023-05-20T21:16:48.272Z,101045.53
2023-05-20T21:19:16.070Z,101035.22
2023-05-20T21:21:43.802Z,101043.16
2023-05-20T21:24:11.479Z,101048.59
2023-05-20T21:26:39.279Z,101036.34
2023-05-20T21:29:07.449Z,101039.88
2023-05-20T21:31:36.675Z,101046.91
2023-05-20T21:34:04.558Z,101040.53
2023-05-20T21:36:32.417Z,101036.84
2023-05-20T21:39:00.094Z,101041.63
2023-05-20T21:41:27.841Z,101042.41
2023-05-20T21:43:55.546Z,101025.59
2023-05-20T21:46:23.485Z,101029.59
2023-05-20T21:48:52.688Z,101030.63
2023-05-20T21:51:20.385Z,101028.88
2023-05-20T21:53:48.046Z,101014.13
2023-05-20T21:56:15.842Z,101018.38
2023-05-20T21:58:43.523Z,101009.13
2023-05-20T22:01:11.258Z,101001.03
2023-05-20T22:03:39.850Z,100993.13
2023-05-20T22:06:09.194Z,101001.22
2023-05-20T22:08:36.861Z,100998.19
2023-05-20T22:11:07.363Z,100990.72
2023-05-20T22:13:36.307Z,100993.22
2023-05-20T22:16:04.932Z,100989.00
2023-05-20T22:18:32.889Z,100980.47
2023-05-20T22:21:01.079Z,100979.75
2023-05-20T22:23:30.135Z,100981.34
2023-05-20T22:25:57.952Z,100970.00
2023-05-20T22:28:26.245Z,100979.53
2023-05-20T22:30:54.831Z,100974.22
2023-05-20T22:33:24.369Z,100961.50
2023-05-20T22:35:53.514Z,100980.34
2023-05-20T22:38:22.015Z,100954.66
2023-05-20T22:40:51.095Z,100953.69
2023-05-20T22:43:18.746Z,100960.56
2023-05-20T22:45:46.463Z,100934.69
2023-05-20T22:48:14.288Z,100935.16
2023-05-20T22:50:42.287Z,100928.97
2023-05-20T22:53:10.600Z,100933.88
2023-05-20T22:55:38.781Z,100940.41
2023-05-20T22:58:08.657Z,100939.31
2023-05-20T23:00:37.169Z,100935.91
2023-05-20T23:03:04.981Z,100930.41
2023-05-20T23:05:33.014Z,100916.88
2023-05-20T23:08:00.836Z,100927.47
2023-05-20T23:10:28.544Z,100922.56
2023-05-20T23:12:56.220Z,100912.81
2023-05-20T23:15:25.648Z,100917.63
2023-05-20T23:17:53.392Z,100912.03
2023-05-20T23:20:22.243Z,100910.97
2023-05-20T23:22:49.957Z,100906.69
2023-05-20T23:25:18.056Z,100909.47
2023-05-20T23:27:45.756Z,100917.56
2023-05-20T23:30:13.720Z,100905.66
2023-05-20T23:32:43.525Z,100901.28
2023-05-20T23:35:13.218Z,100902.63
2023-05-20T23:37:41.086Z,100908.63
2023-05-20T23:40:10.210Z,100899.16
2023-05-20T23:42:37.866Z,100903.25
2023-05-20T23:45:06.202Z,100908.41
2023-05-20T23:47:34.281Z,100888.25
2023-05-20T23:50:03.900Z,100886.91
2023-05-20T23:52:31.586Z,100877.84
2023-05-20T23:55:00.147Z,100899.69
2023-05-20T23:57:27.989Z,100892.91
2023-05-20T23:59:55.811Z,100890.13
